グアム の空港の天気 - METARとTAF

グアム国際空港 ( PGUM / GUM ) - グアム ハガニア
飛行場実況気象(Metar)
観測時間08/26 04:54 ChST (08/25 18:54 UTC)
風向・風速南南東 2m/s
視程10km以上
天気現象
なし
気温26.1℃
湿度90%
気圧1008.7hPa
METARPGUM 251854Z 15003KT 10SM CLR 26/24 A2981 RMK AO2 SLP087 T02610244
過去の天気等 Google飛行場航空写真 Wunderground天気予報

過去48時間のMETAR

飛行場予報(TAF)
発表時間: 8/26 03:23 ChST (8/25 17:23 UTC)
予報対象時間: 26日4時 ChST ~ 27日10時 ChST
風向・風速南東 4m/s
視程10km以上
天気現象周辺でしゅう雨
少しの雲 雲底高度 550m
全天の4割程度の雲 雲底高度 1220m
全天の4割程度の雲 雲底高度 4270m
26日12時 ChST から
風向・風速南東 6m/s
視程10km以上
天気現象周辺でしゅう雨
全天の4割程度の雲 雲底高度 490m
全天の4割程度の雲 雲底高度 1220m
全天の8割程度の雲 雲底高度 4270m
PGUM 251723Z 2518/2624 14007KT P6SM VCSH FEW018 SCT040 SCT140
FM260200 14011KT P6SM VCSH SCT016 SCT040 BKN140